createdAt,value
2022-12-31T00:02:05.618Z,18.29
2022-12-31T00:07:27.508Z,18.29
2022-12-31T00:12:49.269Z,18.27
2022-12-31T00:18:11.699Z,18.28
2022-12-31T00:23:33.610Z,18.29
2022-12-31T00:28:57.638Z,18.27
2022-12-31T00:34:19.356Z,18.26
2022-12-31T00:39:41.101Z,18.26
2022-12-31T00:45:02.847Z,18.25
2022-12-31T00:50:24.569Z,18.24
2022-12-31T00:55:46.541Z,18.22
2022-12-31T01:01:13.720Z,18.24
2022-12-31T01:06:36.055Z,18.24
2022-12-31T01:11:57.883Z,18.22
2022-12-31T01:17:19.627Z,18.22
2022-12-31T01:22:41.379Z,18.22
2022-12-31T01:28:04.359Z,18.20
2022-12-31T01:33:26.081Z,18.19
2022-12-31T01:38:47.830Z,18.19
2022-12-31T01:44:12.390Z,18.19
2022-12-31T01:49:43.082Z,18.20
2022-12-31T01:55:29.237Z,18.19
2022-12-31T02:00:53.518Z,18.18
2022-12-31T02:06:21.201Z,18.18
2022-12-31T02:11:43.121Z,18.17
2022-12-31T02:17:38.963Z,18.18
2022-12-31T02:23:34.431Z,18.16
2022-12-31T02:29:32.837Z,18.14
2022-12-31T02:35:03.448Z,18.12
2022-12-31T02:40:25.813Z,18.12
2022-12-31T02:46:13.806Z,18.13
2022-12-31T02:51:50.885Z,18.12
2022-12-31T02:57:15.575Z,18.10
2022-12-31T03:02:40.876Z,18.10
2022-12-31T03:08:02.645Z,18.10
2022-12-31T03:13:24.993Z,18.09
2022-12-31T03:19:05.371Z,18.10
2022-12-31T03:24:45.751Z,18.08
2022-12-31T03:30:08.249Z,18.08
2022-12-31T03:35:32.930Z,18.07
2022-12-31T03:40:54.661Z,18.07
2022-12-31T03:46:16.417Z,18.07
2022-12-31T03:51:38.243Z,18.07
2022-12-31T03:57:00.487Z,18.07
2022-12-31T04:02:28.590Z,18.07
2022-12-31T04:07:52.356Z,18.07
2022-12-31T04:13:16.929Z,18.07
2022-12-31T04:18:38.989Z,18.07
2022-12-31T04:24:01.981Z,18.07
2022-12-31T04:29:23.938Z,18.06
2022-12-31T04:34:45.647Z,18.07
2022-12-31T04:40:08.162Z,18.07
2022-12-31T04:45:29.902Z,18.08
2022-12-31T04:50:51.751Z,18.07
2022-12-31T04:56:13.898Z,18.07
2022-12-31T05:01:36.877Z,18.06
2022-12-31T05:06:59.146Z,18.06
2022-12-31T05:12:20.955Z,18.05
2022-12-31T05:17:42.711Z,18.05
2022-12-31T05:23:04.657Z,18.06
2022-12-31T05:28:26.748Z,18.03
2022-12-31T05:33:48.641Z,18.04
2022-12-31T05:39:10.412Z,18.05
2022-12-31T05:44:32.301Z,18.04
2022-12-31T05:49:54.075Z,18.03
2022-12-31T05:55:15.923Z,18.03
2022-12-31T06:00:37.629Z,18.03
2022-12-31T06:06:01.365Z,18.03
2022-12-31T06:11:23.601Z,18.02
2022-12-31T06:16:45.349Z,18.03
2022-12-31T06:22:07.183Z,18.01
2022-12-31T06:27:29.110Z,18.02
2022-12-31T06:32:51.003Z,18.01
2022-12-31T06:38:12.736Z,18.03
2022-12-31T06:43:35.521Z,18.10
2022-12-31T06:48:57.317Z,18.34
2022-12-31T06:54:19.067Z,18.67
2022-12-31T06:59:41.152Z,19.01
2022-12-31T07:05:08.202Z,19.35
2022-12-31T07:10:43.079Z,19.62
2022-12-31T07:16:30.924Z,19.75
2022-12-31T07:21:54.803Z,19.77
2022-12-31T07:27:42.089Z,19.76
2022-12-31T07:33:44.636Z,19.66
2022-12-31T07:39:11.894Z,19.55
2022-12-31T07:44:57.719Z,19.49
2022-12-31T07:50:19.971Z,19.36
2022-12-31T07:55:41.707Z,19.28
2022-12-31T08:01:04.032Z,19.20
2022-12-31T08:06:44.826Z,19.17
2022-12-31T08:12:08.704Z,19.06
2022-12-31T08:17:30.570Z,19.03
2022-12-31T08:23:33.573Z,19.03
2022-12-31T08:29:13.033Z,19.04
2022-12-31T08:34:43.894Z,19.15
2022-12-31T08:40:59.801Z,19.27
2022-12-31T08:46:29.458Z,19.38
2022-12-31T08:51:51.477Z,19.49
2022-12-31T08:57:44.008Z,19.70
2022-12-31T09:03:20.088Z,19.89
2022-12-31T09:09:00.225Z,20.05
2022-12-31T09:14:41.107Z,20.24
2022-12-31T09:20:03.299Z,20.38
2022-12-31T09:25:26.300Z,20.50
2022-12-31T09:31:02.604Z,20.61
2022-12-31T09:36:36.610Z,20.71
2022-12-31T09:42:16.780Z,20.74
2022-12-31T09:47:59.896Z,20.75
2022-12-31T09:53:36.423Z,20.73
2022-12-31T09:59:37.451Z,20.64
2022-12-31T10:06:00.985Z,20.52
2022-12-31T10:11:47.365Z,20.40
2022-12-31T10:17:54.226Z,20.27
2022-12-31T10:23:50.449Z,20.16
2022-12-31T10:29:36.808Z,20.04
2022-12-31T10:35:31.339Z,19.94
2022-12-31T10:40:56.048Z,19.83
2022-12-31T10:46:39.569Z,19.77
2022-12-31T10:52:48.927Z,19.68
2022-12-31T10:58:38.046Z,19.62
2022-12-31T11:04:14.968Z,19.55
2022-12-31T11:09:51.570Z,19.50
2022-12-31T11:15:39.458Z,19.46
2022-12-31T11:21:28.310Z,19.41
2022-12-31T11:27:07.107Z,19.36
2022-12-31T11:32:56.529Z,19.38
2022-12-31T11:38:29.191Z,19.38
2022-12-31T11:44:01.220Z,19.34
2022-12-31T11:49:50.618Z,19.34
2022-12-31T11:55:26.875Z,19.38
2022-12-31T12:01:14.111Z,19.46
2022-12-31T12:06:35.854Z,19.49
2022-12-31T12:12:03.126Z,19.51
2022-12-31T12:17:32.652Z,19.52
2022-12-31T12:22:56.503Z,19.54
2022-12-31T12:28:18.512Z,19.55
2022-12-31T12:33:46.477Z,19.54
2022-12-31T12:39:08.389Z,19.58
2022-12-31T12:44:30.843Z,19.61
2022-12-31T12:49:54.502Z,19.62
2022-12-31T12:55:23.177Z,19.66
2022-12-31T13:00:47.639Z,19.66
2022-12-31T13:06:50.953Z,19.65
2022-12-31T13:12:27.889Z,19.57
2022-12-31T13:18:02.813Z,19.57
2022-12-31T13:23:39.981Z,19.49
2022-12-31T13:29:03.864Z,19.45
2022-12-31T13:34:33.846Z,19.43
2022-12-31T13:40:03.098Z,19.38
2022-12-31T13:45:34.885Z,19.35
2022-12-31T13:51:23.232Z,19.34
2022-12-31T13:56:47.325Z,19.36
2022-12-31T14:02:39.132Z,19.41
2022-12-31T14:08:03.073Z,19.45
2022-12-31T14:13:43.323Z,19.49
2022-12-31T14:19:18.829Z,19.55
2022-12-31T14:24:46.608Z,19.61
2022-12-31T14:30:19.778Z,19.69
2022-12-31T14:35:52.732Z,19.81
2022-12-31T14:41:37.022Z,19.93
2022-12-31T14:47:07.663Z,20.10
2022-12-31T14:52:49.266Z,20.22
2022-12-31T14:58:28.233Z,20.32
2022-12-31T15:03:50.797Z,20.41
2022-12-31T15:09:20.786Z,20.50
2022-12-31T15:15:08.725Z,20.71
2022-12-31T15:20:59.485Z,20.90
2022-12-31T15:26:24.690Z,20.93
2022-12-31T15:31:48.062Z,20.96
2022-12-31T15:38:00.725Z,20.97
2022-12-31T15:43:25.136Z,20.97
2022-12-31T15:48:55.439Z,20.97
2022-12-31T15:54:50.665Z,20.97
2022-12-31T16:00:20.967Z,20.94
2022-12-31T16:05:42.666Z,20.88
2022-12-31T16:11:06.056Z,20.82
2022-12-31T16:16:32.637Z,20.74
2022-12-31T16:22:00.835Z,20.65
2022-12-31T16:27:24.571Z,20.56
2022-12-31T16:32:48.717Z,20.48
2022-12-31T16:38:18.082Z,20.37
2022-12-31T16:43:41.854Z,20.29
2022-12-31T16:49:15.873Z,20.23
2022-12-31T16:54:39.836Z,20.14
2022-12-31T17:00:06.466Z,20.09
2022-12-31T17:05:28.871Z,20.07
2022-12-31T17:10:51.064Z,20.06
2022-12-31T17:16:18.074Z,20.05
2022-12-31T17:21:47.597Z,19.99
2022-12-31T17:27:10.021Z,19.96
2022-12-31T17:32:37.725Z,19.99
2022-12-31T17:38:17.975Z,20.21
2022-12-31T17:43:40.540Z,20.50
2022-12-31T17:49:03.176Z,20.79
2022-12-31T17:54:24.904Z,21.11
2022-12-31T17:59:46.648Z,21.36
2022-12-31T18:05:20.735Z,21.51
2022-12-31T18:10:44.539Z,21.54
2022-12-31T18:16:06.723Z,21.50
2022-12-31T18:21:32.805Z,21.44
2022-12-31T18:26:55.986Z,21.35
2022-12-31T18:32:24.509Z,21.23
2022-12-31T18:37:46.650Z,21.11
2022-12-31T18:43:17.489Z,21.00
2022-12-31T18:48:41.558Z,20.87
2022-12-31T18:54:04.911Z,20.78
2022-12-31T18:59:26.721Z,20.73
2022-12-31T19:04:48.712Z,20.78
2022-12-31T19:10:14.279Z,20.94
2022-12-31T19:15:43.477Z,21.15
2022-12-31T19:21:05.468Z,21.31
2022-12-31T19:26:27.284Z,21.45
2022-12-31T19:31:49.777Z,21.62
2022-12-31T19:37:15.535Z,21.78
2022-12-31T19:42:37.348Z,21.89
2022-12-31T19:47:59.067Z,21.96
2022-12-31T19:53:24.192Z,22.03
2022-12-31T19:58:46.432Z,22.12
2022-12-31T20:04:08.195Z,22.26
2022-12-31T20:09:29.917Z,22.33
2022-12-31T20:14:51.684Z,22.44
2022-12-31T20:20:13.537Z,22.54
2022-12-31T20:25:35.263Z,22.61
2022-12-31T20:30:57.218Z,22.63
2022-12-31T20:36:19.021Z,22.66
2022-12-31T20:41:40.739Z,22.66
2022-12-31T20:47:02.590Z,22.74
2022-12-31T20:52:24.347Z,22.80
2022-12-31T20:57:46.083Z,22.82
2022-12-31T21:03:23.799Z,22.86
2022-12-31T21:08:49.674Z,22.86
2022-12-31T21:14:11.482Z,22.80
2022-12-31T21:19:33.212Z,22.67
2022-12-31T21:24:55.001Z,22.49
2022-12-31T21:30:18.799Z,22.34
2022-12-31T21:35:45.672Z,22.21
2022-12-31T21:41:33.284Z,22.09
2022-12-31T21:47:41.054Z,21.92
2022-12-31T21:53:02.648Z,21.71
2022-12-31T21:58:26.498Z,21.50
2022-12-31T22:03:49.277Z,21.35
2022-12-31T22:09:11.059Z,21.25
2022-12-31T22:14:32.774Z,21.19
2022-12-31T22:20:17.566Z,21.15
2022-12-31T22:25:37.979Z,21.13
2022-12-31T22:31:01.040Z,21.11
2022-12-31T22:36:24.269Z,21.12
2022-12-31T22:41:46.670Z,21.14
2022-12-31T22:47:08.801Z,21.14
2022-12-31T22:52:31.383Z,21.14
2022-12-31T22:57:53.105Z,21.10
2022-12-31T23:03:15.351Z,21.09
2022-12-31T23:08:37.149Z,21.03
2022-12-31T23:14:17.814Z,20.98
2022-12-31T23:19:58.412Z,20.98
2022-12-31T23:25:20.465Z,20.92
2022-12-31T23:30:43.374Z,20.83
2022-12-31T23:36:07.069Z,20.76
2022-12-31T23:41:28.839Z,20.71
2022-12-31T23:46:50.914Z,20.66
2022-12-31T23:52:12.667Z,20.60
2022-12-31T23:57:34.406Z,20.55
